createdAt,value
2022-11-12T00:00:57.298Z,4.70
2022-11-12T00:03:24.017Z,4.70
2022-11-12T00:05:50.889Z,4.70
2022-11-12T00:08:18.206Z,4.70
2022-11-12T00:10:45.906Z,4.70
2022-11-12T00:13:13.123Z,4.70
2022-11-12T00:15:39.971Z,4.60
2022-11-12T00:18:06.810Z,4.60
2022-11-12T00:20:33.850Z,4.60
2022-11-12T00:23:00.654Z,4.60
2022-11-12T00:25:27.331Z,4.60
2022-11-12T00:27:54.278Z,4.60
2022-11-12T00:30:21.025Z,4.50
2022-11-12T00:32:47.794Z,4.60
2022-11-12T00:35:14.588Z,4.60
2022-11-12T00:37:41.573Z,4.50
2022-11-12T00:40:09.100Z,4.50
2022-11-12T00:42:36.254Z,4.60
2022-11-12T00:45:02.991Z,4.60
2022-11-12T00:47:29.753Z,4.50
2022-11-12T00:49:56.550Z,4.50
2022-11-12T00:52:23.214Z,4.50
2022-11-12T00:54:50.158Z,4.40
2022-11-12T00:57:17.021Z,4.50
2022-11-12T00:59:43.777Z,4.40
2022-11-12T01:02:10.473Z,4.40
2022-11-12T01:04:37.308Z,4.30
2022-11-12T01:07:04.078Z,4.40
2022-11-12T01:09:30.998Z,4.40
2022-11-12T01:11:57.867Z,4.40
2022-11-12T01:14:24.589Z,4.40
2022-11-12T01:16:51.322Z,4.40
2022-11-12T01:19:18.064Z,4.30
2022-11-12T01:21:45.221Z,4.40
2022-11-12T01:24:12.261Z,4.40
2022-11-12T01:26:39.197Z,4.40
2022-11-12T01:29:06.364Z,4.30
2022-11-12T01:31:35.943Z,4.30
2022-11-12T01:34:08.832Z,4.20
2022-11-12T01:36:39.986Z,4.20
2022-11-12T01:39:08.494Z,4.30
2022-11-12T01:41:37.151Z,4.20
2022-11-12T01:44:08.008Z,4.30
2022-11-12T01:46:36.757Z,4.30
2022-11-12T01:49:06.375Z,4.30
2022-11-12T01:51:42.647Z,4.10
2022-11-12T01:54:13.366Z,4.20
2022-11-12T01:56:42.453Z,4.20
2022-11-12T01:59:34.644Z,4.30
2022-11-12T02:02:01.736Z,4.20
2022-11-12T02:04:28.886Z,4.20
2022-11-12T02:06:57.464Z,4.20
2022-11-12T02:09:25.332Z,4.30
2022-11-12T02:11:52.081Z,4.20
2022-11-12T02:14:18.834Z,4.30
2022-11-12T02:16:47.394Z,4.20
2022-11-12T02:19:16.287Z,4.10
2022-11-12T02:21:43.029Z,4.10
2022-11-12T02:24:12.537Z,4.20
2022-11-12T02:26:42.749Z,4.30
2022-11-12T02:29:09.589Z,4.30
2022-11-12T02:31:36.945Z,4.20
2022-11-12T02:34:04.423Z,4.20
2022-11-12T02:36:31.444Z,4.20
2022-11-12T02:38:58.700Z,4.20
2022-11-12T02:41:25.547Z,4.30
2022-11-12T02:43:52.383Z,4.20
2022-11-12T02:46:19.323Z,4.20
2022-11-12T02:48:46.174Z,4.20
2022-11-12T02:51:13.055Z,4.20
2022-11-12T02:53:39.789Z,4.00
2022-11-12T02:56:06.805Z,4.20
2022-11-12T02:58:33.549Z,4.20
2022-11-12T03:01:00.373Z,4.20
2022-11-12T03:03:27.325Z,4.20
2022-11-12T03:05:59.392Z,4.20
2022-11-12T03:08:26.681Z,4.20
2022-11-12T03:10:53.954Z,4.20
2022-11-12T03:13:21.253Z,4.20
2022-11-12T03:15:48.637Z,4.20
2022-11-12T03:18:15.679Z,4.20
2022-11-12T03:20:42.491Z,4.20
2022-11-12T03:23:10.864Z,4.20
2022-11-12T03:25:38.026Z,4.20
2022-11-12T03:28:08.127Z,4.20
2022-11-12T03:30:39.986Z,4.20
2022-11-12T03:33:08.720Z,4.20
2022-11-12T03:35:35.768Z,4.20
2022-11-12T03:38:03.279Z,4.20
2022-11-12T03:40:30.748Z,4.20
2022-11-12T03:42:57.880Z,4.20
2022-11-12T03:45:27.400Z,4.20
2022-11-12T03:47:57.242Z,4.30
2022-11-12T03:50:27.722Z,4.20
2022-11-12T03:52:58.255Z,4.30
2022-11-12T03:55:27.056Z,4.30
2022-11-12T03:57:55.235Z,4.30
2022-11-12T04:00:23.708Z,4.30
2022-11-12T04:02:51.359Z,4.40
2022-11-12T04:05:18.710Z,4.40
2022-11-12T04:07:45.566Z,4.40
2022-11-12T04:10:12.407Z,4.30
2022-11-12T04:12:39.153Z,4.40
2022-11-12T04:15:06.416Z,4.40
2022-11-12T04:17:33.634Z,4.40
2022-11-12T04:20:00.387Z,4.40
2022-11-12T04:22:27.331Z,4.40
2022-11-12T04:24:54.014Z,4.40
2022-11-12T04:27:32.161Z,4.30
2022-11-12T04:29:59.636Z,4.40
2022-11-12T04:32:26.887Z,4.40
2022-11-12T04:34:54.097Z,4.40
2022-11-12T04:37:23.580Z,4.40
2022-11-12T04:39:50.907Z,4.40
2022-11-12T04:42:18.232Z,4.50
2022-11-12T04:44:45.201Z,4.50
2022-11-12T04:47:11.939Z,4.50
2022-11-12T04:49:38.804Z,4.40
2022-11-12T04:52:05.607Z,4.40
2022-11-12T04:54:33.596Z,4.40
2022-11-12T04:57:01.287Z,4.40
2022-11-12T04:59:28.066Z,4.40
2022-11-12T05:01:54.936Z,4.50
2022-11-12T05:04:21.684Z,4.40
2022-11-12T05:06:48.708Z,4.40
2022-11-12T05:09:15.548Z,4.40
2022-11-12T05:11:42.480Z,4.40
2022-11-12T05:14:11.295Z,4.50
2022-11-12T05:16:38.109Z,4.40
2022-11-12T05:19:05.889Z,4.30
2022-11-12T05:21:32.922Z,4.30
2022-11-12T05:23:59.760Z,4.30
2022-11-12T05:26:26.599Z,4.40
2022-11-12T05:28:53.456Z,4.40
2022-11-12T05:31:21.412Z,4.40
2022-11-12T05:33:48.178Z,4.40
2022-11-12T05:36:14.900Z,4.40
2022-11-12T05:38:42.456Z,4.40
2022-11-12T05:41:09.311Z,4.40
2022-11-12T05:43:36.051Z,4.50
2022-11-12T05:46:03.818Z,4.40
2022-11-12T05:48:31.786Z,4.40
2022-11-12T05:51:12.548Z,4.30
2022-11-12T05:53:41.128Z,4.30
2022-11-12T05:56:09.194Z,4.30
2022-11-12T05:58:38.308Z,4.40
2022-11-12T06:01:05.318Z,4.40
2022-11-12T06:03:32.367Z,4.30
2022-11-12T06:06:00.236Z,4.40
2022-11-12T06:08:27.542Z,4.30
2022-11-12T06:10:55.568Z,4.40
2022-11-12T06:13:24.975Z,4.40
2022-11-12T06:15:53.437Z,4.40
2022-11-12T06:18:20.584Z,4.40
2022-11-12T06:20:47.540Z,4.30
2022-11-12T06:23:14.382Z,4.40
2022-11-12T06:25:41.214Z,4.40
2022-11-12T06:28:08.224Z,4.40
2022-11-12T06:30:35.026Z,4.50
2022-11-12T06:33:01.755Z,4.50
2022-11-12T06:35:28.487Z,4.50
2022-11-12T06:37:55.228Z,4.50
2022-11-12T06:40:22.015Z,4.50
2022-11-12T06:42:55.967Z,4.50
2022-11-12T06:45:22.718Z,4.60
2022-11-12T06:47:49.582Z,4.60
2022-11-12T06:50:16.623Z,4.60
2022-11-12T06:52:43.535Z,4.50
2022-11-12T06:55:10.378Z,4.50
2022-11-12T06:57:37.330Z,4.50
2022-11-12T07:00:04.468Z,4.50
2022-11-12T07:02:31.311Z,4.60
2022-11-12T07:04:59.176Z,4.50
2022-11-12T07:07:26.050Z,4.70
2022-11-12T07:09:52.859Z,4.60
2022-11-12T07:12:19.699Z,4.60
2022-11-12T07:14:46.455Z,4.70
2022-11-12T07:17:13.386Z,4.60
2022-11-12T07:19:40.326Z,4.60
2022-11-12T07:22:07.170Z,4.60
2022-11-12T07:24:35.450Z,4.70
2022-11-12T07:27:02.304Z,4.80
2022-11-12T07:29:46.245Z,4.70
2022-11-12T07:32:14.096Z,4.70
2022-11-12T07:34:40.938Z,4.60
2022-11-12T07:37:07.925Z,4.60
2022-11-12T07:39:34.824Z,4.50
2022-11-12T07:42:01.830Z,4.50
2022-11-12T07:44:28.612Z,4.50
2022-11-12T07:46:55.373Z,4.50
2022-11-12T07:49:22.110Z,4.60
2022-11-12T07:51:50.264Z,4.70
2022-11-12T07:54:17.202Z,4.70
2022-11-12T07:56:44.070Z,4.70
2022-11-12T07:59:10.887Z,4.70
2022-11-12T08:01:41.983Z,4.80
2022-11-12T08:04:10.231Z,4.80
2022-11-12T08:06:37.417Z,4.70
2022-11-12T08:09:07.698Z,4.70
2022-11-12T08:11:35.034Z,4.60
2022-11-12T08:14:02.090Z,4.70
2022-11-12T08:16:28.921Z,4.70
2022-11-12T08:18:55.675Z,4.70
2022-11-12T08:21:22.412Z,4.70
2022-11-12T08:23:49.241Z,4.70
2022-11-12T08:26:17.821Z,4.80
2022-11-12T08:28:44.877Z,4.80
2022-11-12T08:31:17.861Z,4.80
2022-11-12T19:13:00.435Z,5.50
2022-11-12T19:15:27.282Z,5.50
2022-11-12T19:17:53.919Z,5.50
2022-11-12T19:20:20.496Z,5.60
2022-11-12T19:22:47.097Z,5.50
2022-11-12T19:25:13.825Z,5.50
2022-11-12T19:27:40.383Z,5.60
2022-11-12T19:30:07.746Z,5.70
2022-11-12T19:32:34.323Z,5.60
2022-11-12T19:35:00.864Z,5.50
2022-11-12T19:37:33.596Z,5.50
2022-11-12T19:40:00.859Z,5.60
2022-11-12T19:42:27.419Z,5.50
2022-11-12T19:44:53.974Z,5.40
2022-11-12T19:47:20.535Z,5.30
2022-11-12T19:49:47.105Z,5.40
2022-11-12T19:52:13.647Z,5.40
2022-11-12T19:54:40.221Z,5.50
2022-11-12T19:57:06.794Z,5.50
2022-11-12T19:59:33.376Z,5.50
2022-11-12T20:02:00.026Z,5.40
2022-11-12T20:04:26.603Z,5.40
2022-11-12T20:06:53.250Z,5.40
2022-11-12T20:09:19.864Z,5.30
2022-11-12T20:11:46.474Z,5.40
2022-11-12T20:14:13.043Z,5.40
2022-11-12T20:16:39.586Z,5.50
2022-11-12T20:19:06.225Z,5.40
2022-11-12T20:21:32.801Z,5.40
2022-11-12T20:24:00.137Z,5.40
2022-11-12T20:26:27.085Z,5.30
2022-11-12T20:28:53.757Z,5.30
2022-11-12T20:31:21.006Z,5.30
2022-11-12T20:33:49.666Z,5.30
2022-11-12T20:36:18.948Z,5.30
2022-11-12T20:38:45.563Z,5.30
2022-11-12T20:41:17.863Z,5.20
2022-11-12T20:43:44.553Z,5.10
2022-11-12T20:46:11.908Z,5.10
2022-11-12T20:48:43.281Z,5.10
2022-11-12T20:51:24.532Z,5.10
2022-11-12T20:53:58.392Z,5.10
2022-11-12T20:56:27.101Z,5.20
2022-11-12T20:58:53.912Z,5.10
2022-11-12T21:01:23.093Z,5.20
2022-11-12T21:03:50.089Z,5.10
2022-11-12T21:06:23.080Z,5.10
2022-11-12T21:08:49.963Z,5.10
2022-11-12T21:11:19.727Z,5.00
2022-11-12T21:13:46.291Z,5.00
2022-11-12T21:16:14.313Z,5.00
2022-11-12T21:18:41.446Z,4.90
2022-11-12T21:21:13.288Z,4.90
2022-11-12T21:23:41.953Z,5.00
2022-11-12T21:26:11.516Z,4.90
2022-11-12T21:28:38.088Z,4.90
2022-11-12T21:31:06.655Z,4.90
2022-11-12T21:33:33.511Z,4.90
2022-11-12T21:36:00.626Z,4.90
2022-11-12T21:38:28.490Z,4.90
2022-11-12T21:41:22.644Z,4.90
2022-11-12T21:43:49.807Z,4.90
2022-11-12T21:46:19.322Z,4.90
2022-11-12T21:48:49.891Z,5.20
2022-11-12T21:51:21.121Z,5.10
2022-11-12T21:53:47.833Z,5.10
2022-11-12T21:56:17.203Z,5.10
2022-11-12T21:58:44.434Z,5.00
2022-11-12T22:01:16.204Z,4.90
2022-11-12T22:03:43.885Z,5.00
2022-11-12T22:06:11.366Z,5.00
2022-11-12T22:08:38.401Z,5.00
2022-11-12T22:11:07.235Z,5.00
2022-11-12T22:13:34.301Z,5.00
2022-11-12T22:16:12.092Z,4.90
2022-11-12T22:18:41.144Z,4.90
2022-11-12T22:21:13.303Z,4.90
2022-11-12T22:23:40.001Z,4.90
2022-11-12T22:26:11.387Z,4.80
2022-11-12T22:28:37.969Z,4.80
2022-11-12T22:31:16.202Z,4.80
2022-11-12T22:33:43.022Z,4.80
2022-11-12T22:36:21.082Z,4.80
2022-11-12T22:38:49.831Z,4.80
2022-11-12T22:41:22.472Z,4.80
2022-11-12T22:43:50.861Z,4.80
2022-11-12T22:46:22.499Z,4.70
2022-11-12T22:48:49.385Z,4.70
2022-11-12T22:51:27.093Z,4.70
2022-11-12T22:54:04.892Z,4.70
2022-11-12T22:56:31.907Z,4.70
2022-11-12T22:58:58.666Z,4.70
2022-11-12T23:01:27.769Z,4.70
2022-11-12T23:03:56.495Z,4.70
2022-11-12T23:06:23.711Z,4.70
2022-11-12T23:08:51.354Z,4.70
2022-11-12T23:11:20.140Z,4.70
2022-11-12T23:13:47.564Z,4.70
2022-11-12T23:16:20.714Z,4.80
2022-11-12T23:18:47.424Z,4.80
2022-11-12T23:21:20.303Z,4.80
2022-11-12T23:23:47.273Z,4.80
2022-11-12T23:26:20.316Z,4.80
2022-11-12T23:28:46.956Z,4.80
2022-11-12T23:31:17.268Z,4.70
2022-11-12T23:33:48.328Z,4.60
2022-11-12T23:36:15.290Z,4.70
2022-11-12T23:38:42.326Z,4.70
2022-11-12T23:41:12.430Z,4.70
2022-11-12T23:43:39.313Z,4.70
2022-11-12T23:46:06.096Z,4.70
2022-11-12T23:48:32.692Z,4.70
2022-11-12T23:51:04.576Z,4.60
2022-11-12T23:53:33.678Z,4.60
2022-11-12T23:56:01.019Z,4.60
2022-11-12T23:58:27.947Z,4.60
